createdAt,value
2023-04-18T00:00:35.477Z,8.38
2023-04-18T00:03:04.197Z,8.19
2023-04-18T00:05:31.264Z,8.13
2023-04-18T00:07:57.819Z,8.19
2023-04-18T00:10:24.363Z,8.13
2023-04-18T00:12:51.431Z,8.19
2023-04-18T00:15:18.452Z,8.00
2023-04-18T00:17:45.078Z,8.13
2023-04-18T00:20:12.759Z,8.06
2023-04-18T00:22:43.851Z,7.94
2023-04-18T00:25:11.172Z,8.00
2023-04-18T00:27:41.697Z,7.94
2023-04-18T00:30:09.085Z,7.88
2023-04-18T00:32:35.876Z,7.81
2023-04-18T00:35:02.582Z,7.81
2023-04-18T00:37:29.772Z,7.75
2023-04-18T00:39:56.275Z,7.81
2023-04-18T00:42:24.334Z,7.75
2023-04-18T00:44:50.849Z,7.69
2023-04-18T00:47:17.593Z,7.63
2023-04-18T00:49:45.132Z,7.56
2023-04-18T00:52:16.320Z,7.44
2023-04-18T00:54:43.111Z,7.56
2023-04-18T00:57:09.739Z,7.44
2023-04-18T00:59:36.374Z,7.44
2023-04-18T01:02:03.950Z,7.44
2023-04-18T01:04:32.603Z,7.31
2023-04-18T01:06:59.613Z,7.25
2023-04-18T01:09:26.279Z,7.31
2023-04-18T01:11:52.859Z,7.25
2023-04-18T01:14:20.657Z,7.25
2023-04-18T01:16:48.403Z,7.13
2023-04-18T01:19:19.397Z,7.13
2023-04-18T01:21:45.930Z,7.25
2023-04-18T01:24:14.990Z,7.13
2023-04-18T01:26:47.616Z,7.06
2023-04-18T01:29:14.389Z,7.06
2023-04-18T01:31:41.541Z,7.19
2023-04-18T01:34:08.502Z,7.13
2023-04-18T01:36:35.937Z,7.00
2023-04-18T01:39:02.551Z,6.94
2023-04-18T01:41:32.224Z,6.94
2023-04-18T01:43:59.328Z,6.94
2023-04-18T01:46:26.032Z,6.88
2023-04-18T01:48:53.097Z,6.88
2023-04-18T01:51:19.947Z,6.81
2023-04-18T01:53:46.489Z,6.75
2023-04-18T01:56:13.185Z,6.75
2023-04-18T01:58:41.538Z,6.88
2023-04-18T02:01:08.202Z,6.81
2023-04-18T02:03:35.035Z,6.75
2023-04-18T02:06:03.888Z,6.69
2023-04-18T02:08:32.859Z,6.69
2023-04-18T02:11:00.985Z,6.75
2023-04-18T02:13:27.926Z,6.69
2023-04-18T02:15:54.490Z,6.56
2023-04-18T02:18:22.042Z,6.63
2023-04-18T02:20:48.804Z,6.63
2023-04-18T02:23:15.434Z,6.63
2023-04-18T02:25:42.044Z,6.44
2023-04-18T02:28:08.556Z,6.50
2023-04-18T02:30:35.231Z,6.44
2023-04-18T02:33:01.815Z,6.38
2023-04-18T02:35:29.334Z,6.38
2023-04-18T02:37:56.040Z,6.31
2023-04-18T02:40:22.552Z,6.38
2023-04-18T02:42:49.121Z,6.31
2023-04-18T02:45:15.850Z,6.19
2023-04-18T02:47:53.700Z,6.25
2023-04-18T02:50:22.594Z,6.31
2023-04-18T02:52:49.237Z,6.19
2023-04-18T02:55:16.099Z,6.19
2023-04-18T02:57:42.622Z,6.19
2023-04-18T03:00:09.490Z,6.13
2023-04-18T03:02:36.236Z,6.19
2023-04-18T03:05:03.043Z,6.06
2023-04-18T03:07:30.759Z,6.13
2023-04-18T03:09:57.452Z,5.94
2023-04-18T03:12:24.033Z,6.00
2023-04-18T03:14:50.614Z,6.00
2023-04-18T03:17:18.027Z,6.00
2023-04-18T03:19:46.191Z,6.00
2023-04-18T03:22:14.007Z,5.88
2023-04-18T03:24:40.608Z,5.81
2023-04-18T03:27:07.200Z,5.88
2023-04-18T03:29:33.969Z,5.81
2023-04-18T03:32:00.498Z,5.88
2023-04-18T03:34:27.460Z,5.94
2023-04-18T03:36:54.296Z,5.88
2023-04-18T03:39:20.881Z,5.81
2023-04-18T03:41:47.587Z,5.69
2023-04-18T03:44:14.470Z,5.75
2023-04-18T03:46:41.619Z,5.75
2023-04-18T03:49:08.522Z,5.81
2023-04-18T03:51:43.579Z,5.75
2023-04-18T03:54:10.107Z,5.63
2023-04-18T03:56:36.744Z,5.69
2023-04-18T03:59:03.239Z,5.63
2023-04-18T04:01:29.876Z,5.63
2023-04-18T04:03:56.505Z,5.69
2023-04-18T04:06:23.184Z,5.63
2023-04-18T04:08:49.741Z,5.50
2023-04-18T04:11:17.572Z,5.69
2023-04-18T04:13:44.330Z,5.69
2023-04-18T04:16:11.037Z,5.75
2023-04-18T04:18:37.581Z,5.75
2023-04-18T04:21:05.774Z,5.69
2023-04-18T04:23:33.114Z,5.81
2023-04-18T04:26:04.012Z,5.88
2023-04-18T04:28:31.482Z,5.88
2023-04-18T04:30:58.106Z,5.88
2023-04-18T04:33:25.635Z,5.88
2023-04-18T04:35:55.273Z,6.00
2023-04-18T04:38:24.946Z,5.94
2023-04-18T04:40:52.902Z,5.94
2023-04-18T04:43:20.490Z,5.88
2023-04-18T04:45:51.509Z,6.00
2023-04-18T04:48:19.887Z,6.00
2023-04-18T04:50:54.851Z,6.13
2023-04-18T04:53:26.291Z,6.25
2023-04-18T04:55:53.033Z,6.13
2023-04-18T04:58:20.043Z,6.13
2023-04-18T05:00:47.082Z,6.06
2023-04-18T05:03:14.153Z,6.19
2023-04-18T05:05:40.832Z,6.19
2023-04-18T05:08:07.446Z,6.25
2023-04-18T05:10:36.977Z,6.19
2023-04-18T05:13:04.256Z,6.19
2023-04-18T05:15:31.526Z,6.19
2023-04-18T05:17:58.647Z,6.31
2023-04-18T05:20:25.308Z,6.19
2023-04-18T05:22:51.889Z,6.25
2023-04-18T05:25:18.790Z,6.44
2023-04-18T05:27:46.975Z,6.38
2023-04-18T05:30:13.834Z,6.31
2023-04-18T05:32:40.639Z,6.31
2023-04-18T05:35:08.101Z,6.31
2023-04-18T05:37:34.697Z,6.38
2023-04-18T05:40:01.323Z,6.44
2023-04-18T05:42:27.946Z,6.44
2023-04-18T05:44:54.524Z,6.44
2023-04-18T05:47:21.226Z,6.38
2023-04-18T05:49:47.874Z,6.44
2023-04-18T05:52:14.396Z,6.56
2023-04-18T05:54:41.180Z,6.50
2023-04-18T05:57:07.714Z,6.56
2023-04-18T05:59:34.220Z,6.56
2023-04-18T06:02:00.849Z,6.69
2023-04-18T06:04:27.697Z,6.69
2023-04-18T06:06:54.726Z,6.69
2023-04-18T06:09:21.266Z,6.75
2023-04-18T06:11:47.893Z,6.75
2023-04-18T06:14:14.568Z,6.88
2023-04-18T06:16:41.423Z,6.94
2023-04-18T06:19:08.093Z,6.94
2023-04-18T06:21:34.659Z,6.94
2023-04-18T06:24:01.640Z,7.00
2023-04-18T06:26:28.304Z,7.06
2023-04-18T06:28:54.829Z,7.06
2023-04-18T06:31:21.360Z,7.13
2023-04-18T06:33:47.948Z,7.13
2023-04-18T06:36:14.608Z,7.31
2023-04-18T06:38:41.145Z,7.31
2023-04-18T06:41:07.686Z,7.38
2023-04-18T06:43:35.944Z,7.50
2023-04-18T06:46:05.091Z,7.75
2023-04-18T06:48:31.898Z,7.63
2023-04-18T06:50:58.515Z,7.75
2023-04-18T06:53:25.112Z,7.81
2023-04-18T06:55:51.709Z,7.75
2023-04-18T06:58:18.322Z,7.81
2023-04-18T07:00:47.513Z,7.75
2023-04-18T07:03:14.315Z,7.75
2023-04-18T07:05:40.957Z,7.81
2023-04-18T07:08:07.894Z,7.75
2023-04-18T07:10:34.589Z,7.88
2023-04-18T07:13:01.179Z,7.94
2023-04-18T07:15:27.791Z,7.94
2023-04-18T07:17:54.462Z,7.94
2023-04-18T07:20:21.124Z,8.00
2023-04-18T07:22:48.311Z,8.06
2023-04-18T07:25:14.989Z,8.06
2023-04-18T07:27:41.839Z,8.06
2023-04-18T07:33:02.214Z,8.25
2023-04-18T07:35:28.797Z,8.25
2023-04-18T07:37:56.065Z,8.31
2023-04-18T07:40:22.628Z,8.44
2023-04-18T07:42:49.189Z,8.31
2023-04-18T07:45:15.826Z,8.38
2023-04-18T07:47:42.406Z,8.50
2023-04-18T07:54:37.064Z,9.06
2023-04-18T07:57:03.691Z,9.06
2023-04-18T07:59:32.079Z,9.13
2023-04-18T08:01:58.763Z,9.31
2023-04-18T08:04:27.625Z,9.19
2023-04-18T08:06:59.001Z,9.38
2023-04-18T08:09:25.964Z,9.63
2023-04-18T08:11:54.962Z,9.75
2023-04-18T08:14:21.573Z,9.69
2023-04-18T08:16:48.254Z,9.81
2023-04-18T08:19:15.070Z,9.69
2023-04-18T08:21:41.781Z,9.75
2023-04-18T08:24:08.369Z,10.06
2023-04-18T08:26:35.057Z,10.19
2023-04-18T08:29:01.582Z,10.31
2023-04-18T08:31:28.287Z,10.00
2023-04-18T08:33:54.823Z,10.19
2023-04-18T08:36:21.490Z,10.44
2023-04-18T08:38:48.124Z,10.06
2023-04-18T08:41:21.977Z,10.06
2023-04-18T08:43:49.034Z,10.00
2023-04-18T08:46:15.677Z,10.19
2023-04-18T08:48:42.369Z,10.19
2023-04-18T08:51:09.260Z,10.13
2023-04-18T08:53:35.888Z,10.13
2023-04-18T08:56:02.894Z,10.19
2023-04-18T08:58:33.573Z,10.56
2023-04-18T09:01:00.833Z,10.44
2023-04-18T09:03:40.033Z,10.31
2023-04-18T09:06:08.768Z,10.44
2023-04-18T09:08:35.498Z,10.44
2023-04-18T09:11:25.994Z,10.44
2023-04-18T09:13:53.361Z,10.69
2023-04-18T09:16:22.340Z,10.44
2023-04-18T09:19:21.702Z,10.75
2023-04-18T09:22:00.886Z,11.13
2023-04-18T09:24:30.391Z,11.81
2023-04-18T09:26:58.581Z,12.00
2023-04-18T09:29:46.611Z,11.31
2023-04-18T09:32:29.095Z,11.25
2023-04-18T09:35:04.084Z,11.31
2023-04-18T09:37:31.296Z,11.00
2023-04-18T09:39:57.890Z,11.19
2023-04-18T09:42:26.727Z,11.25
2023-04-18T09:45:08.262Z,11.38
2023-04-18T09:47:36.413Z,11.38
2023-04-18T09:50:04.718Z,11.56
2023-04-18T09:52:35.895Z,11.63
2023-04-18T09:55:04.846Z,11.13
2023-04-18T09:57:32.705Z,11.31
2023-04-18T10:00:10.589Z,11.44
2023-04-18T10:02:50.332Z,11.38
2023-04-18T10:05:20.942Z,11.50
2023-04-18T10:07:51.270Z,11.50
2023-04-18T10:10:17.955Z,11.19
2023-04-18T10:12:47.989Z,11.31
2023-04-18T10:15:16.029Z,11.50
2023-04-18T10:18:04.432Z,11.44
2023-04-18T10:20:33.375Z,10.88
2023-04-18T10:23:00.752Z,10.75
2023-04-18T10:25:39.414Z,10.75
2023-04-18T10:28:09.522Z,11.38
2023-04-18T10:30:41.841Z,11.75
2023-04-18T10:33:31.980Z,11.69
2023-04-18T10:36:14.824Z,11.50
2023-04-18T10:38:46.860Z,11.13
2023-04-18T10:41:22.230Z,11.06
2023-04-18T10:44:09.685Z,11.25
2023-04-18T10:46:38.605Z,11.69
2023-04-18T10:49:26.900Z,12.38
2023-04-18T10:51:58.340Z,12.00
2023-04-18T10:54:49.528Z,12.25
2023-04-18T10:57:16.125Z,12.31
2023-04-18T10:59:45.208Z,12.44
2023-04-18T11:02:28.817Z,12.00
2023-04-18T11:04:57.487Z,12.38
2023-04-18T11:07:40.568Z,12.38
2023-04-18T11:10:08.788Z,11.63
2023-04-18T11:12:37.479Z,11.75
2023-04-18T11:15:11.280Z,11.81
2023-04-18T11:17:42.408Z,11.94
2023-04-18T11:20:12.743Z,12.00
2023-04-18T11:22:50.764Z,11.81
2023-04-18T11:25:19.731Z,11.81
2023-04-18T11:27:48.082Z,12.06
2023-04-18T11:30:15.599Z,12.38
2023-04-18T11:32:42.200Z,12.44
2023-04-18T11:35:10.705Z,12.00
2023-04-18T11:37:38.705Z,11.88
2023-04-18T11:40:09.094Z,11.88
2023-04-18T11:42:38.876Z,11.75
2023-04-18T11:45:15.846Z,11.88
2023-04-18T11:47:43.496Z,11.94
2023-04-18T11:50:12.882Z,12.38
2023-04-18T11:52:42.306Z,12.50
2023-04-18T11:55:23.770Z,12.69
2023-04-18T11:58:00.385Z,12.81
2023-04-18T12:00:38.434Z,12.19
2023-04-18T12:03:13.406Z,12.25
2023-04-18T12:05:40.942Z,12.06
2023-04-18T12:08:13.284Z,12.25
2023-04-18T12:10:48.023Z,12.31
2023-04-18T12:13:15.082Z,12.31
2023-04-18T12:15:45.166Z,12.31
2023-04-18T12:18:13.399Z,12.19
2023-04-18T12:20:46.249Z,12.38
2023-04-18T12:23:32.232Z,12.31
2023-04-18T12:26:03.882Z,12.56
2023-04-18T12:28:31.682Z,12.63
2023-04-18T12:30:59.140Z,12.69
2023-04-18T12:33:26.174Z,12.63
2023-04-18T12:35:52.951Z,12.63
2023-04-18T12:38:22.200Z,12.50
2023-04-18T12:40:49.777Z,12.63
2023-04-18T12:43:16.901Z,12.69
2023-04-18T12:45:45.111Z,12.81
2023-04-18T12:48:11.669Z,12.69
2023-04-18T12:50:38.225Z,12.69
2023-04-18T12:53:04.872Z,12.63
2023-04-18T12:55:31.726Z,12.56
2023-04-18T12:57:58.470Z,12.50
2023-04-18T13:00:30.459Z,12.31
2023-04-18T13:02:58.096Z,12.31
2023-04-18T13:05:29.158Z,12.44
2023-04-18T13:08:08.488Z,12.38
2023-04-18T13:10:42.546Z,12.25
2023-04-18T13:13:09.125Z,12.31
2023-04-18T13:15:36.224Z,12.25
2023-04-18T13:18:06.201Z,12.13
2023-04-18T13:20:33.695Z,12.25
2023-04-18T13:23:00.698Z,12.31
2023-04-18T13:25:27.233Z,12.25
2023-04-18T13:27:53.849Z,12.38
2023-04-18T13:30:20.420Z,12.38
2023-04-18T13:32:47.071Z,12.50
2023-04-18T13:35:13.738Z,12.63
2023-04-18T13:37:40.408Z,12.56
2023-04-18T13:40:07.749Z,12.75
2023-04-18T13:42:35.426Z,12.63
2023-04-18T13:45:01.984Z,12.75
2023-04-18T13:47:29.905Z,12.81
2023-04-18T13:49:57.656Z,13.06
2023-04-18T13:52:25.006Z,13.13
2023-04-18T13:54:51.585Z,13.13
2023-04-18T13:57:18.162Z,13.13
2023-04-18T13:59:44.732Z,13.06
2023-04-18T14:02:11.426Z,13.31
2023-04-18T14:04:38.251Z,14.06
2023-04-18T14:07:06.258Z,14.75
2023-04-18T14:09:33.083Z,15.06
2023-04-18T14:11:59.797Z,14.50
2023-04-18T14:14:26.432Z,13.94
2023-04-18T14:16:53.902Z,13.94
2023-04-18T14:19:20.856Z,13.81
2023-04-18T14:21:48.418Z,13.69
2023-04-18T14:24:14.990Z,13.75
2023-04-18T14:26:41.618Z,13.94
2023-04-18T14:29:08.231Z,13.88
2023-04-18T14:31:35.190Z,13.94
2023-04-18T14:34:01.970Z,13.88
2023-04-18T14:36:28.527Z,13.69
2023-04-18T14:38:55.131Z,13.50
2023-04-18T14:41:21.817Z,13.56
2023-04-18T14:43:48.734Z,14.31
2023-04-18T14:46:18.462Z,14.19
2023-04-18T14:48:46.483Z,13.69
2023-04-18T14:51:14.951Z,13.63
2023-04-18T14:53:41.559Z,14.00
2023-04-18T14:56:08.098Z,14.63
2023-04-18T14:58:34.676Z,14.44
2023-04-18T15:01:01.206Z,14.69
2023-04-18T15:03:27.968Z,14.31
2023-04-18T15:05:55.039Z,14.38
2023-04-18T15:08:21.998Z,14.44
2023-04-18T15:10:48.646Z,14.44
2023-04-18T15:13:15.738Z,14.50
2023-04-18T15:15:42.336Z,14.56
2023-04-18T15:18:09.026Z,14.50
2023-04-18T15:20:36.966Z,14.75
2023-04-18T15:23:03.701Z,14.50
2023-04-18T15:25:30.926Z,14.25
2023-04-18T15:27:58.295Z,14.31
2023-04-18T15:30:25.496Z,14.25
2023-04-18T15:32:52.203Z,14.31
2023-04-18T15:35:18.981Z,14.38
2023-04-18T15:37:45.671Z,14.38
2023-04-18T15:40:16.185Z,14.25
2023-04-18T15:42:43.667Z,14.38
2023-04-18T15:45:11.521Z,14.31
2023-04-18T15:47:38.839Z,14.44
2023-04-18T15:50:06.912Z,14.50
2023-04-18T15:52:33.567Z,14.69
2023-04-18T15:55:00.703Z,14.63
2023-04-18T15:57:29.578Z,14.31
2023-04-18T15:59:56.673Z,14.19
2023-04-18T16:02:23.368Z,14.63
2023-04-18T16:04:50.034Z,14.81
2023-04-18T16:07:16.870Z,14.75
2023-04-18T16:09:44.134Z,14.81
2023-04-18T16:12:10.725Z,14.81
2023-04-18T16:14:37.269Z,14.69
2023-04-18T16:17:03.850Z,14.69
2023-04-18T16:19:30.701Z,14.56
2023-04-18T16:21:57.412Z,14.19
2023-04-18T16:24:25.578Z,14.13
2023-04-18T16:26:53.523Z,14.06
2023-04-18T16:29:20.302Z,13.94
2023-04-18T16:31:47.629Z,13.94
2023-04-18T16:34:15.779Z,13.81
2023-04-18T16:36:42.491Z,13.63
2023-04-18T16:39:09.662Z,13.81
2023-04-18T16:41:36.221Z,13.81
2023-04-18T16:44:02.766Z,14.00
2023-04-18T16:46:32.147Z,14.00
2023-04-18T16:48:59.344Z,13.94
2023-04-18T16:51:26.876Z,13.88
2023-04-18T16:53:53.407Z,13.81
2023-04-18T16:56:19.934Z,13.75
2023-04-18T16:58:46.661Z,13.75
2023-04-18T17:01:13.261Z,13.75
2023-04-18T17:03:40.001Z,13.81
2023-04-18T17:06:07.027Z,13.69
2023-04-18T17:08:34.140Z,13.69
2023-04-18T17:11:02.202Z,13.63
2023-04-18T17:13:31.386Z,13.69
2023-04-18T17:15:58.335Z,13.63
2023-04-18T17:18:24.976Z,13.44
2023-04-18T17:20:51.780Z,13.44
2023-04-18T17:23:18.353Z,13.31
2023-04-18T17:25:44.917Z,13.31
2023-04-18T17:28:11.801Z,13.19
2023-04-18T17:30:42.023Z,13.19
2023-04-18T17:33:10.060Z,13.19
2023-04-18T17:35:36.883Z,13.31
2023-04-18T17:38:03.472Z,13.44
2023-04-18T17:40:30.138Z,13.50
2023-04-18T17:42:56.772Z,13.38
2023-04-18T17:45:24.072Z,13.25
2023-04-18T17:47:50.882Z,13.25
2023-04-18T17:50:17.885Z,13.25
2023-04-18T17:52:46.236Z,13.13
2023-04-18T17:55:12.914Z,13.06
2023-04-18T17:57:39.562Z,13.06
2023-04-18T18:00:10.342Z,13.06
2023-04-18T18:02:37.470Z,12.94
2023-04-18T18:05:05.251Z,12.81
2023-04-18T18:07:34.717Z,12.69
2023-04-18T18:10:01.738Z,12.75
2023-04-18T18:12:28.275Z,12.69
2023-04-18T18:14:54.829Z,12.56
2023-04-18T18:17:21.999Z,12.38
2023-04-18T18:19:48.509Z,12.25
2023-04-18T18:22:15.674Z,12.31
2023-04-18T18:24:42.225Z,12.38
2023-04-18T18:27:08.842Z,12.50
2023-04-18T18:29:35.828Z,12.50
2023-04-18T18:32:02.405Z,12.50
2023-04-18T18:34:31.934Z,12.50
2023-04-18T18:36:58.480Z,12.44
2023-04-18T18:39:24.990Z,12.31
2023-04-18T18:41:52.096Z,12.31
2023-04-18T18:44:18.640Z,12.31
2023-04-18T18:46:45.431Z,12.19
2023-04-18T18:49:12.208Z,12.13
2023-04-18T18:51:38.940Z,12.13
2023-04-18T18:54:05.478Z,11.63
2023-04-18T18:56:32.167Z,11.63
2023-04-18T18:58:58.698Z,11.81
2023-04-18T19:01:25.328Z,11.88
2023-04-18T19:03:52.221Z,11.75
2023-04-18T19:06:18.904Z,11.75
2023-04-18T19:08:45.599Z,11.81
2023-04-18T19:11:12.802Z,11.75
2023-04-18T19:13:39.658Z,11.75
2023-04-18T19:16:06.326Z,11.63
2023-04-18T19:18:33.156Z,11.50
2023-04-18T19:20:59.714Z,11.50
2023-04-18T19:23:27.662Z,11.56
2023-04-18T19:25:54.303Z,11.63
2023-04-18T19:28:22.558Z,11.56
2023-04-18T19:30:49.728Z,11.50
2023-04-18T19:33:17.237Z,11.38
2023-04-18T19:35:43.809Z,11.31
2023-04-18T19:38:10.318Z,11.44
2023-04-18T19:40:37.177Z,11.44
2023-04-18T19:43:03.765Z,11.50
2023-04-18T19:45:30.616Z,11.50
2023-04-18T19:47:57.252Z,11.44
2023-04-18T19:50:23.822Z,11.31
2023-04-18T19:52:50.641Z,11.25
2023-04-18T19:55:17.463Z,11.19
2023-04-18T19:57:44.097Z,11.13
2023-04-18T20:00:12.748Z,11.06
2023-04-18T20:02:42.697Z,11.13
2023-04-18T20:05:10.094Z,11.06
2023-04-18T20:07:36.916Z,11.00
2023-04-18T20:10:04.392Z,10.94
2023-04-18T20:12:31.034Z,11.00
2023-04-18T20:14:58.872Z,10.88
2023-04-18T20:17:26.144Z,10.94
2023-04-18T20:19:52.859Z,10.88
2023-04-18T20:22:19.703Z,10.81
2023-04-18T20:24:48.055Z,10.63
2023-04-18T20:27:15.234Z,10.63
2023-04-18T20:29:41.817Z,10.63
2023-04-18T20:32:08.463Z,10.69
2023-04-18T20:34:35.846Z,10.56
2023-04-18T20:37:02.371Z,10.63
2023-04-18T20:39:28.994Z,10.56
2023-04-18T20:41:57.705Z,10.50
2023-04-18T20:44:24.809Z,10.50
2023-04-18T20:46:53.347Z,10.38
2023-04-18T20:49:19.917Z,10.38
2023-04-18T20:51:46.490Z,10.44
2023-04-18T20:54:13.415Z,10.38
2023-04-18T20:56:40.276Z,10.25
2023-04-18T20:59:06.824Z,10.25
2023-04-18T21:01:34.137Z,10.31
2023-04-18T21:04:02.291Z,10.25
2023-04-18T21:06:29.295Z,10.13
2023-04-18T21:08:55.837Z,10.19
2023-04-18T21:11:22.408Z,10.25
2023-04-18T21:13:49.102Z,10.13
2023-04-18T21:16:15.780Z,10.13
2023-04-18T21:18:42.400Z,10.06
2023-04-18T21:21:08.986Z,10.13
2023-04-18T21:23:44.012Z,10.19
2023-04-18T21:26:12.740Z,10.13
2023-04-18T21:29:00.152Z,10.06
2023-04-18T21:31:29.622Z,10.06
2023-04-18T21:33:57.472Z,10.00
2023-04-18T21:36:26.830Z,10.00
2023-04-18T21:38:54.359Z,9.94
2023-04-18T21:41:21.480Z,9.88
2023-04-18T21:43:48.343Z,9.81
2023-04-18T21:46:15.528Z,9.88
2023-04-18T21:48:44.259Z,9.81
2023-04-18T21:51:12.403Z,9.88
2023-04-18T21:53:40.071Z,9.88
2023-04-18T21:56:07.804Z,9.81
2023-04-18T21:58:35.082Z,9.75
2023-04-18T22:01:01.865Z,9.75
2023-04-18T22:03:29.474Z,9.69
2023-04-18T22:05:56.653Z,9.63
2023-04-18T22:08:26.245Z,9.56
2023-04-18T22:10:58.169Z,9.63
2023-04-18T22:13:29.744Z,9.69
2023-04-18T22:15:57.998Z,9.75
2023-04-18T22:18:24.802Z,9.75
2023-04-18T22:20:53.522Z,9.56
2023-04-18T22:23:20.291Z,9.56
2023-04-18T22:25:46.854Z,9.56
2023-04-18T22:28:13.392Z,9.56
2023-04-18T22:30:40.001Z,9.44
2023-04-18T22:33:06.601Z,9.50
2023-04-18T22:35:33.173Z,9.50
2023-04-18T22:37:59.694Z,9.44
2023-04-18T22:40:26.668Z,9.44
2023-04-18T22:42:53.368Z,9.44
2023-04-18T22:45:19.958Z,9.38
2023-04-18T22:47:46.700Z,9.44
2023-04-18T22:50:13.848Z,9.38
2023-04-18T22:52:41.186Z,9.38
2023-04-18T22:55:08.572Z,9.31
2023-04-18T22:57:35.345Z,9.19
2023-04-18T23:00:02.019Z,9.13
2023-04-18T23:02:28.797Z,9.13
2023-04-18T23:04:58.326Z,9.19
2023-04-18T23:07:25.062Z,9.25
2023-04-18T23:09:51.581Z,9.13
2023-04-18T23:12:18.157Z,8.94
2023-04-18T23:14:44.750Z,9.06
2023-04-18T23:17:11.312Z,9.00
2023-04-18T23:19:38.503Z,8.94
2023-04-18T23:22:05.065Z,8.94
2023-04-18T23:24:31.579Z,8.88
2023-04-18T23:26:58.126Z,8.94
2023-04-18T23:29:24.693Z,9.00
2023-04-18T23:31:51.502Z,8.94
2023-04-18T23:34:18.174Z,9.00
2023-04-18T23:36:44.945Z,9.00
2023-04-18T23:39:11.750Z,9.00
2023-04-18T23:41:38.275Z,9.13
2023-04-18T23:44:05.002Z,9.13
2023-04-18T23:46:31.668Z,9.06
2023-04-18T23:48:58.466Z,9.00
2023-04-18T23:51:26.132Z,9.06
2023-04-18T23:53:52.669Z,9.06
2023-04-18T23:56:19.453Z,9.00
2023-04-18T23:58:46.105Z,9.00
